Aviation Digital Data Service (ADDS)

Output produced by METARs form (1142 UTC 19 February 2019)
found at http://www.aviationweather.gov/metar/data/
 
METAR text: ZWSH 191100Z 13003MPS 100V160 6000 NSC 05/M12 Q1011 NOSIG
Conditions at: ZWSH (KASHI , CN) observed 1100 UTC 19 February 2019
Temperature: 5.0°C (41°F)
Dewpoint: -12.0°C (10°F) [RH = 28%]
Pressure (altimeter): 29.85 inches Hg (1011.0 mb)
Winds: from the SE (130 degrees) at 7 MPH (6 knots; 3.1 m/s)
Visibility: 4 miles ( 6 km)
Ceiling: at least 12,000 feet AGL
Clouds: sky clear below 12,000 feet AGL
Weather: no significant weather observed at this time

METAR text: ZWSH 191000Z 08003MPS 010V180 6000 NSC 06/M12 Q1011 NOSIG
Conditions at: ZWSH (KASHI , CN) observed 1000 UTC 19 February 2019
Temperature: 6.0°C (43°F)
Dewpoint: -12.0°C (10°F) [RH = 26%]
Pressure (altimeter): 29.85 inches Hg (1011.0 mb)
Winds: from the E (80 degrees) at 7 MPH (6 knots; 3.1 m/s)
Visibility: 4 miles ( 6 km)
Ceiling: at least 12,000 feet AGL
Clouds: sky clear below 12,000 feet AGL
Weather: no significant weather observed at this time

METAR text: ZWSH 190900Z VRB02MPS 6000 NSC 06/M12 Q1011 NOSIG
Conditions at: ZWSH (KASHI , CN) observed 0900 UTC 19 February 2019
Temperature: 6.0°C (43°F)
Dewpoint: -12.0°C (10°F) [RH = 26%]
Pressure (altimeter): 29.85 inches Hg (1011.0 mb)
Winds: variable direction winds at 5 MPH (4 knots; 2.1 m/s)
Visibility: 4 miles ( 6 km)
Ceiling: at least 12,000 feet AGL
Clouds: sky clear below 12,000 feet AGL
Weather: no significant weather observed at this time

METAR text: ZWSH 190800Z VRB01MPS 6000 NSC 05/M12 Q1011 NOSIG
Conditions at: ZWSH (KASHI , CN) observed 0800 UTC 19 February 2019
Temperature: 5.0°C (41°F)
Dewpoint: -12.0°C (10°F) [RH = 28%]
Pressure (altimeter): 29.85 inches Hg (1011.0 mb)
Winds: variable direction winds at 2 MPH (2 knots; 1.0 m/s)
Visibility: 4 miles ( 6 km)
Ceiling: at least 12,000 feet AGL
Clouds: sky clear below 12,000 feet AGL
Weather: no significant weather observed at this time

METAR text: ZWSH 190700Z 10002MPS 070V130 6000 NSC 04/M13 Q1012 NOSIG
Conditions at: ZWSH (KASHI , CN) observed 0700 UTC 19 February 2019
Temperature: 4.0°C (39°F)
Dewpoint: -13.0°C ( 9°F) [RH = 28%]
Pressure (altimeter): 29.88 inches Hg (1012.0 mb)
Winds: from the E (100 degrees) at 5 MPH (4 knots; 2.1 m/s)
Visibility: 4 miles ( 6 km)
Ceiling: at least 12,000 feet AGL
Clouds: sky clear below 12,000 feet AGL
Weather: no significant weather observed at this time

METAR text: ZWSH 190600Z VRB01MPS 6000 NSC 03/M13 Q1013 NOSIG
Conditions at: ZWSH (KASHI , CN) observed 0600 UTC 19 February 2019
Temperature: 3.0°C (37°F)
Dewpoint: -13.0°C ( 9°F) [RH = 30%]
Pressure (altimeter): 29.91 inches Hg (1013.0 mb)
Winds: variable direction winds at 2 MPH (2 knots; 1.0 m/s)
Visibility: 4 miles ( 6 km)
Ceiling: at least 12,000 feet AGL
Clouds: sky clear below 12,000 feet AGL
Weather: no significant weather observed at this time

METAR text: ZWSH 190500Z VRB01MPS 6000 NSC 02/M13 Q1013 NOSIG
Conditions at: ZWSH (KASHI , CN) observed 0500 UTC 19 February 2019
Temperature: 2.0°C (36°F)
Dewpoint: -13.0°C ( 9°F) [RH = 32%]
Pressure (altimeter): 29.91 inches Hg (1013.0 mb)
Winds: variable direction winds at 2 MPH (2 knots; 1.0 m/s)
Visibility: 4 miles ( 6 km)
Ceiling: at least 12,000 feet AGL
Clouds: sky clear below 12,000 feet AGL
Weather: no significant weather observed at this time

METAR text: ZWSH 190400Z 33002MPS 290V350 6000 NSC 00/M12 Q1013 NOSIG
Conditions at: ZWSH (KASHI , CN) observed 0400 UTC 19 February 2019
Temperature: 0.0°C (32°F)
Dewpoint: -12.0°C (10°F) [RH = 40%]
Pressure (altimeter): 29.91 inches Hg (1013.0 mb)
Winds: from the NNW (330 degrees) at 5 MPH (4 knots; 2.1 m/s)
Visibility: 4 miles ( 6 km)
Ceiling: at least 12,000 feet AGL
Clouds: sky clear below 12,000 feet AGL
Weather: no significant weather observed at this time

METAR text: ZWSH 190300Z 31004MPS 6000 NSC M03/M11 Q1013 NOSIG
Conditions at: ZWSH (KASHI , CN) observed 0300 UTC 19 February 2019
Temperature: -3.0°C (27°F)
Dewpoint: -11.0°C (12°F) [RH = 54%]
Pressure (altimeter): 29.91 inches Hg (1013.0 mb)
Winds: from the NW (310 degrees) at 9 MPH (8 knots; 4.1 m/s)
Visibility: 4 miles ( 6 km)
Ceiling: at least 12,000 feet AGL
Clouds: sky clear below 12,000 feet AGL
Weather: no significant weather observed at this time

METAR text: ZWSH 190200Z 31004MPS 6000 NSC M04/M12 Q1012 NOSIG
Conditions at: ZWSH (KASHI , CN) observed 0200 UTC 19 February 2019
Temperature: -4.0°C (25°F)
Dewpoint: -12.0°C (10°F) [RH = 54%]
Pressure (altimeter): 29.88 inches Hg (1012.0 mb)
Winds: from the NW (310 degrees) at 9 MPH (8 knots; 4.1 m/s)
Visibility: 4 miles ( 6 km)
Ceiling: at least 12,000 feet AGL
Clouds: sky clear below 12,000 feet AGL
Weather: no significant weather observed at this time

METAR text: ZWSH 190100Z 31004MPS 5000 DU NSC M04/M12 Q1011 NOSIG
Conditions at: ZWSH (KASHI , CN) observed 0100 UTC 19 February 2019
Temperature: -4.0°C (25°F)
Dewpoint: -12.0°C (10°F) [RH = 54%]
Pressure (altimeter): 29.85 inches Hg (1011.0 mb)
Winds: from the NW (310 degrees) at 9 MPH (8 knots; 4.1 m/s)
Visibility: 3 miles ( 5 km)
Ceiling: at least 12,000 feet AGL
Clouds: sky clear below 12,000 feet AGL
Weather: DU  (widespread dust)

METAR text: ZWSH 190000Z 31004MPS 5000 DU FEW040 M04/M12 Q1011 NOSIG
Conditions at: ZWSH (KASHI , CN) observed 0000 UTC 19 February 2019
Temperature: -4.0°C (25°F)
Dewpoint: -12.0°C (10°F) [RH = 54%]
Pressure (altimeter): 29.85 inches Hg (1011.0 mb)
Winds: from the NW (310 degrees) at 9 MPH (8 knots; 4.1 m/s)
Visibility: 3 miles ( 5 km)
Ceiling: at least 12,000 feet AGL
Clouds: few clouds at 4000 feet AGL
Weather: DU  (widespread dust)

METAR text: ZWSH 182300Z 28003MPS 250V310 5000 DU SCT040 M04/M12 Q1011 NOSIG
Conditions at: ZWSH (KASHI , CN) observed 2300 UTC 18 February 2019
Temperature: -4.0°C (25°F)
Dewpoint: -12.0°C (10°F) [RH = 54%]
Pressure (altimeter): 29.85 inches Hg (1011.0 mb)
Winds: from the W (280 degrees) at 7 MPH (6 knots; 3.1 m/s)
Visibility: 3 miles ( 5 km)
Ceiling: at least 12,000 feet AGL
Clouds: scattered clouds at 4000 feet AGL
Weather: DU  (widespread dust)

METAR text: ZWSH 182200Z 31004MPS 5000 DU SCT040 M03/M12 Q1011 NOSIG
Conditions at: ZWSH (KASHI , CN) observed 2200 UTC 18 February 2019
Temperature: -3.0°C (27°F)
Dewpoint: -12.0°C (10°F) [RH = 50%]
Pressure (altimeter): 29.85 inches Hg (1011.0 mb)
Winds: from the NW (310 degrees) at 9 MPH (8 knots; 4.1 m/s)
Visibility: 3 miles ( 5 km)
Ceiling: at least 12,000 feet AGL
Clouds: scattered clouds at 4000 feet AGL
Weather: DU  (widespread dust)

METAR text: ZWSH 182100Z 31005MPS 5000 DU SCT040 M03/M12 Q1011 NOSIG
Conditions at: ZWSH (KASHI , CN) observed 2100 UTC 18 February 2019
Temperature: -3.0°C (27°F)
Dewpoint: -12.0°C (10°F) [RH = 50%]
Pressure (altimeter): 29.85 inches Hg (1011.0 mb)
Winds: from the NW (310 degrees) at 12 MPH (10 knots; 5.1 m/s)
Visibility: 3 miles ( 5 km)
Ceiling: at least 12,000 feet AGL
Clouds: scattered clouds at 4000 feet AGL
Weather: DU  (widespread dust)

METAR text: ZWSH 182000Z 32004MPS 5000 DU SCT040 M04/M13 Q1011 NOSIG
Conditions at: ZWSH (KASHI , CN) observed 2000 UTC 18 February 2019
Temperature: -4.0°C (25°F)
Dewpoint: -13.0°C ( 9°F) [RH = 50%]
Pressure (altimeter): 29.85 inches Hg (1011.0 mb)
Winds: from the NW (320 degrees) at 9 MPH (8 knots; 4.1 m/s)
Visibility: 3 miles ( 5 km)
Ceiling: at least 12,000 feet AGL
Clouds: scattered clouds at 4000 feet AGL
Weather: DU  (widespread dust)

METAR text: ZWSH 181900Z AUTO 31004MPS 7000 // ////// M02/M13 Q1011
Conditions at: ZWSH (KASHI , CN) observed 1900 UTC 18 February 2019
Temperature: -2.0°C (28°F)
Dewpoint: -13.0°C ( 9°F) [RH = 43%]
Pressure (altimeter): 29.85 inches Hg (1011.0 mb)
Winds: from the NW (310 degrees) at 9 MPH (8 knots; 4.1 m/s)
Visibility: 4 miles ( 7 km)
Ceiling: unknown
Clouds: missing
Weather: no significant weather observed at this time

METAR text: ZWSH 181800Z AUTO 30004MPS 6000 // ////// M02/M13 Q1011
Conditions at: ZWSH (KASHI , CN) observed 1800 UTC 18 February 2019
Temperature: -2.0°C (28°F)
Dewpoint: -13.0°C ( 9°F) [RH = 43%]
Pressure (altimeter): 29.85 inches Hg (1011.0 mb)
Winds: from the WNW (300 degrees) at 9 MPH (8 knots; 4.1 m/s)
Visibility: 4 miles ( 6 km)
Ceiling: unknown
Clouds: missing
Weather: no significant weather observed at this time

METAR text: ZWSH 181700Z AUTO 28002MPS 6000 // ////// M01/M13 Q1011
Conditions at: ZWSH (KASHI , CN) observed 1700 UTC 18 February 2019
Temperature: -1.0°C (30°F)
Dewpoint: -13.0°C ( 9°F) [RH = 40%]
Pressure (altimeter): 29.85 inches Hg (1011.0 mb)
Winds: from the W (280 degrees) at 5 MPH (4 knots; 2.1 m/s)
Visibility: 4 miles ( 6 km)
Ceiling: unknown
Clouds: missing
Weather: no significant weather observed at this time

METAR text: ZWSH 181600Z VRB01MPS 5000 DU BKN040 00/M15 Q1011 NOSIG
Conditions at: ZWSH (KASHI , CN) observed 1600 UTC 18 February 2019
Temperature: 0.0°C (32°F)
Dewpoint: -15.0°C ( 5°F) [RH = 31%]
Pressure (altimeter): 29.85 inches Hg (1011.0 mb)
Winds: variable direction winds at 2 MPH (2 knots; 1.0 m/s)
Visibility: 3 miles ( 5 km)
Ceiling: 4000 feet AGL
Clouds: broken clouds at 4000 feet AGL
Weather: DU  (widespread dust)

METAR text: ZWSH 181500Z 28002MPS 5000 DU BKN040 M00/M13 Q1010 NOSIG
Conditions at: ZWSH (KASHI , CN) observed 1500 UTC 18 February 2019
Temperature: 0.0°C (32°F)
Dewpoint: -13.0°C ( 9°F) [RH = 37%]
Pressure (altimeter): 29.82 inches Hg (1010.0 mb)
Winds: from the W (280 degrees) at 5 MPH (4 knots; 2.1 m/s)
Visibility: 3 miles ( 5 km)
Ceiling: 4000 feet AGL
Clouds: broken clouds at 4000 feet AGL
Weather: DU  (widespread dust)

METAR text: ZWSH 181400Z 24001MPS 5000 DU BKN040 01/M15 Q1010 NOSIG
Conditions at: ZWSH (KASHI , CN) observed 1400 UTC 18 February 2019
Temperature: 1.0°C (34°F)
Dewpoint: -15.0°C ( 5°F) [RH = 29%]
Pressure (altimeter): 29.82 inches Hg (1010.0 mb)
Winds: from the WSW (240 degrees) at 2 MPH (2 knots; 1.0 m/s)
Visibility: 3 miles ( 5 km)
Ceiling: 4000 feet AGL
Clouds: broken clouds at 4000 feet AGL
Weather: DU  (widespread dust)

METAR text: ZWSH 181300Z 13002MPS 100V220 5000 DU BKN040 01/M15 Q1009 NOSIG
Conditions at: ZWSH (KASHI , CN) observed 1300 UTC 18 February 2019
Temperature: 1.0°C (34°F)
Dewpoint: -15.0°C ( 5°F) [RH = 29%]
Pressure (altimeter): 29.79 inches Hg (1009.0 mb)
Winds: from the SE (130 degrees) at 5 MPH (4 knots; 2.1 m/s)
Visibility: 3 miles ( 5 km)
Ceiling: 4000 feet AGL
Clouds: broken clouds at 4000 feet AGL
Weather: DU  (widespread dust)

METAR text: ZWSH 181200Z 14002MPS 110V210 5000 DU BKN040 01/M16 Q1009 NOSIG
Conditions at: ZWSH (KASHI , CN) observed 1200 UTC 18 February 2019
Temperature: 1.0°C (34°F)
Dewpoint: -16.0°C ( 3°F) [RH = 27%]
Pressure (altimeter): 29.79 inches Hg (1009.0 mb)
Winds: from the SE (140 degrees) at 5 MPH (4 knots; 2.1 m/s)
Visibility: 3 miles ( 5 km)
Ceiling: 4000 feet AGL
Clouds: broken clouds at 4000 feet AGL
Weather: DU  (widespread dust)

METAR text: ZWSH 181100Z 16002MPS 120V180 5000 DU BKN040 02/M15 Q1008 NOSIG
Conditions at: ZWSH (KASHI , CN) observed 1100 UTC 18 February 2019
Temperature: 2.0°C (36°F)
Dewpoint: -15.0°C ( 5°F) [RH = 27%]
Pressure (altimeter): 29.76 inches Hg (1008.0 mb)
Winds: from the SSE (160 degrees) at 5 MPH (4 knots; 2.1 m/s)
Visibility: 3 miles ( 5 km)
Ceiling: 4000 feet AGL
Clouds: broken clouds at 4000 feet AGL
Weather: DU  (widespread dust)

METAR text: ZWSH 181000Z 08002MPS 030V120 5000 DU BKN040 02/M15 Q1008 NOSIG
Conditions at: ZWSH (KASHI , CN) observed 1000 UTC 18 February 2019
Temperature: 2.0°C (36°F)
Dewpoint: -15.0°C ( 5°F) [RH = 27%]
Pressure (altimeter): 29.76 inches Hg (1008.0 mb)
Winds: from the E (80 degrees) at 5 MPH (4 knots; 2.1 m/s)
Visibility: 3 miles ( 5 km)
Ceiling: 4000 feet AGL
Clouds: broken clouds at 4000 feet AGL
Weather: DU  (widespread dust)

METAR text: ZWSH 180900Z 07002MPS 020V110 5000 DU BKN040 02/M15 Q1008 NOSIG
Conditions at: ZWSH (KASHI , CN) observed 0900 UTC 18 February 2019
Temperature: 2.0°C (36°F)
Dewpoint: -15.0°C ( 5°F) [RH = 27%]
Pressure (altimeter): 29.76 inches Hg (1008.0 mb)
Winds: from the ENE (70 degrees) at 5 MPH (4 knots; 2.1 m/s)
Visibility: 3 miles ( 5 km)
Ceiling: 4000 feet AGL
Clouds: broken clouds at 4000 feet AGL
Weather: DU  (widespread dust)

METAR text: ZWSH 180800Z VRB01MPS 5000 DU BKN040 02/M15 Q1008 NOSIG
Conditions at: ZWSH (KASHI , CN) observed 0800 UTC 18 February 2019
Temperature: 2.0°C (36°F)
Dewpoint: -15.0°C ( 5°F) [RH = 27%]
Pressure (altimeter): 29.76 inches Hg (1008.0 mb)
Winds: variable direction winds at 2 MPH (2 knots; 1.0 m/s)
Visibility: 3 miles ( 5 km)
Ceiling: 4000 feet AGL
Clouds: broken clouds at 4000 feet AGL
Weather: DU  (widespread dust)

METAR text: ZWSH 180700Z 06002MPS 010V140 5000 DU SCT040 01/M14 Q1010 NOSIG
Conditions at: ZWSH (KASHI , CN) observed 0700 UTC 18 February 2019
Temperature: 1.0°C (34°F)
Dewpoint: -14.0°C ( 7°F) [RH = 32%]
Pressure (altimeter): 29.82 inches Hg (1010.0 mb)
Winds: from the ENE (60 degrees) at 5 MPH (4 knots; 2.1 m/s)
Visibility: 3 miles ( 5 km)
Ceiling: at least 12,000 feet AGL
Clouds: scattered clouds at 4000 feet AGL
Weather: DU  (widespread dust)

METAR text: ZWSH 180600Z VRB01MPS 5000 DU SCT040 01/M13 Q1010 NOSIG
Conditions at: ZWSH (KASHI , CN) observed 0600 UTC 18 February 2019
Temperature: 1.0°C (34°F)
Dewpoint: -13.0°C ( 9°F) [RH = 34%]
Pressure (altimeter): 29.82 inches Hg (1010.0 mb)
Winds: variable direction winds at 2 MPH (2 knots; 1.0 m/s)
Visibility: 3 miles ( 5 km)
Ceiling: at least 12,000 feet AGL
Clouds: scattered clouds at 4000 feet AGL
Weather: DU  (widespread dust)

METAR text: ZWSH 180500Z VRB01MPS 5000 DU SCT040 00/M12 Q1011 NOSIG
Conditions at: ZWSH (KASHI , CN) observed 0500 UTC 18 February 2019
Temperature: 0.0°C (32°F)
Dewpoint: -12.0°C (10°F) [RH = 40%]
Pressure (altimeter): 29.85 inches Hg (1011.0 mb)
Winds: variable direction winds at 2 MPH (2 knots; 1.0 m/s)
Visibility: 3 miles ( 5 km)
Ceiling: at least 12,000 feet AGL
Clouds: scattered clouds at 4000 feet AGL
Weather: DU  (widespread dust)

METAR text: ZWSH 180400Z VRB01MPS 5000 DU BKN040 M01/M12 Q1011 NOSIG
Conditions at: ZWSH (KASHI , CN) observed 0400 UTC 18 February 2019
Temperature: -1.0°C (30°F)
Dewpoint: -12.0°C (10°F) [RH = 43%]
Pressure (altimeter): 29.85 inches Hg (1011.0 mb)
Winds: variable direction winds at 2 MPH (2 knots; 1.0 m/s)
Visibility: 3 miles ( 5 km)
Ceiling: 4000 feet AGL
Clouds: broken clouds at 4000 feet AGL
Weather: DU  (widespread dust)

METAR text: ZWSH 180300Z VRB02MPS 5000 DU BKN040 M02/M11 Q1010 NOSIG
Conditions at: ZWSH (KASHI , CN) observed 0300 UTC 18 February 2019
Temperature: -2.0°C (28°F)
Dewpoint: -11.0°C (12°F) [RH = 50%]
Pressure (altimeter): 29.82 inches Hg (1010.0 mb)
Winds: variable direction winds at 5 MPH (4 knots; 2.1 m/s)
Visibility: 3 miles ( 5 km)
Ceiling: 4000 feet AGL
Clouds: broken clouds at 4000 feet AGL
Weather: DU  (widespread dust)

METAR text: ZWSH 180200Z 32003MPS 5000 DU SCT040 M03/M12 Q1010 NOSIG
Conditions at: ZWSH (KASHI , CN) observed 0200 UTC 18 February 2019
Temperature: -3.0°C (27°F)
Dewpoint: -12.0°C (10°F) [RH = 50%]
Pressure (altimeter): 29.82 inches Hg (1010.0 mb)
Winds: from the NW (320 degrees) at 7 MPH (6 knots; 3.1 m/s)
Visibility: 3 miles ( 5 km)
Ceiling: at least 12,000 feet AGL
Clouds: scattered clouds at 4000 feet AGL
Weather: DU  (widespread dust)

METAR text: ZWSH 180100Z 31003MPS 5000 DU SCT040 M03/M12 Q1010 NOSIG
Conditions at: ZWSH (KASHI , CN) observed 0100 UTC 18 February 2019
Temperature: -3.0°C (27°F)
Dewpoint: -12.0°C (10°F) [RH = 50%]
Pressure (altimeter): 29.82 inches Hg (1010.0 mb)
Winds: from the NW (310 degrees) at 7 MPH (6 knots; 3.1 m/s)
Visibility: 3 miles ( 5 km)
Ceiling: at least 12,000 feet AGL
Clouds: scattered clouds at 4000 feet AGL
Weather: DU  (widespread dust)

METAR text: ZWSH 180000Z 31004MPS 5000 DU SCT040 M02/M12 Q1009 NOSIG
Conditions at: ZWSH (KASHI , CN) observed 0000 UTC 18 February 2019
Temperature: -2.0°C (28°F)
Dewpoint: -12.0°C (10°F) [RH = 46%]
Pressure (altimeter): 29.79 inches Hg (1009.0 mb)
Winds: from the NW (310 degrees) at 9 MPH (8 knots; 4.1 m/s)
Visibility: 3 miles ( 5 km)
Ceiling: at least 12,000 feet AGL
Clouds: scattered clouds at 4000 feet AGL
Weather: DU  (widespread dust)

Forecast for: ZWSH (KASHI , CN)
Text: TAF ZWSH 190902Z 1912/2012 12004MPS 6000 FEW040 TX05/2009Z TNM04/00Z
Forecast period: 1200 to 1500 UTC 19 February 2019
Forecast type: FROM: standard forecast or significant change
Winds: from the ESE (120 degrees) at 9 MPH (8 knots; 4.1 m/s)
Visibility: 4 miles (6 km)
Ceiling: at least 12,000 feet AGL
Clouds: few clouds at 4000 feet AGL
Weather: no significant weather forecast for this period
Text: BECMG 1915/1916 33004MPS
Forecast period: 1500 UTC 19 February 2019 to 1200 UTC 20 February 2019
Forecast type: BECOMING: Conditions expected to become as follows by 1600 UTC 19 February 2019
Winds: from the NNW (330 degrees) at 9 MPH (8 knots; 4.1 m/s)
Visibility: 4 miles (6 km)
Ceiling: at least 12,000 feet AGL
Clouds: few clouds at 4000 feet AGL
Weather: no significant weather forecast for this period